Time;durP1;ratioP1;P1;durP2;ratioP2;P2;SDS_P1;SDS_P2;PMS_P1;PMS_P2;Temp;Humidity;BMP_temperature;BMP_pressure;BME280_temperature;BME280_humidity;BME280_pressure;Samples;Min_cycle;Max_cycle;Signal;HPM_P1;HPM_P2
2021/12/26 00:02:12;;;;;;;6.55;2.15;;;-6.40;99.90;;;;;;4769839;29;20039;-87
2021/12/26 00:04:38;;;;;;;4.57;2.20;;;-6.40;99.90;;;;;;4792579;29;20418;-86
2021/12/26 00:07:04;;;;;;;5.07;2.30;;;-6.40;99.90;;;;;;4755795;29;20044;-88
2021/12/26 00:09:30;;;;;;;3.80;1.90;;;-6.50;99.90;;;;;;4763387;29;20055;-88
2021/12/26 00:11:58;;;;;;;5.20;2.05;;;-6.40;99.90;;;;;;4768918;29;20043;-87
2021/12/26 00:14:24;;;;;;;5.30;2.08;;;-6.50;99.90;;;;;;4771907;29;20078;-87
2021/12/26 00:16:50;;;;;;;4.43;1.90;;;-6.50;99.90;;;;;;4772353;29;20446;-86
2021/12/26 00:19:16;;;;;;;7.72;1.80;;;-6.50;99.90;;;;;;4770404;29;20426;-87
2021/12/26 00:21:42;;;;;;;4.57;2.40;;;-6.50;99.90;;;;;;4805515;29;20540;-86
2021/12/26 00:24:08;;;;;;;6.43;2.10;;;-6.50;99.90;;;;;;4762164;29;20101;-86
2021/12/26 00:26:36;;;;;;;9.13;1.80;;;-6.50;99.90;;;;;;4796357;29;20044;-87
2021/12/26 00:29:03;;;;;;;4.88;1.60;;;-6.50;99.90;;;;;;4753141;29;20462;-87
2021/12/26 00:31:29;;;;;;;5.78;1.88;;;-6.50;99.90;;;;;;4754303;29;20249;-87
2021/12/26 00:33:55;;;;;;;5.22;1.88;;;-6.50;99.90;;;;;;4765998;29;20046;-86
2021/12/26 00:36:21;;;;;;;2.92;1.50;;;-6.50;99.90;;;;;;4757730;29;20070;-87
2021/12/26 00:38:47;;;;;;;6.10;1.83;;;-6.50;99.90;;;;;;4743810;29;20550;-86
2021/12/26 00:41:12;;;;;;;2.20;1.40;;;-6.60;99.90;;;;;;4755350;29;20044;-86
2021/12/26 00:43:38;;;;;;;4.93;1.92;;;-6.50;99.90;;;;;;4796288;29;20039;-85
2021/12/26 00:46:04;;;;;;;5.43;1.52;;;-6.60;99.90;;;;;;4757382;29;20347;-90
2021/12/26 00:48:30;;;;;;;3.80;1.80;;;-6.60;99.90;;;;;;4777347;29;20038;-85
2021/12/26 00:50:57;;;;;;;5.97;2.20;;;-6.60;99.90;;;;;;4767240;29;20346;-86
2021/12/26 00:53:23;;;;;;;5.25;1.92;;;-6.60;99.90;;;;;;4776716;29;20119;-86
2021/12/26 00:55:50;;;;;;;4.47;1.98;;;-6.80;99.90;;;;;;4756370;29;20031;-87
2021/12/26 00:58:15;;;;;;;6.57;1.88;;;-6.60;99.90;;;;;;4772345;29;20431;-87
2021/12/26 01:00:44;;;;;;;4.70;1.67;;;-6.70;99.90;;;;;;4764239;29;20043;-86
2021/12/26 01:03:12;;;;;;;3.90;1.58;;;-6.70;99.90;;;;;;4771214;29;20047;-86
2021/12/26 01:05:40;;;;;;;3.83;1.58;;;-6.60;99.90;;;;;;4756945;29;20071;-87
2021/12/26 01:08:09;;;;;;;5.47;1.92;;;-6.70;99.90;;;;;;4787140;29;20070;-86
2021/12/26 01:10:48;;;;;;;4.20;1.50;;;-6.60;99.90;;;;;;4779988;29;20221;-86
2021/12/26 01:13:25;;;;;;;5.70;2.10;;;-6.60;99.90;;;;;;4796150;29;20051;-86
2021/12/26 01:15:55;;;;;;;5.95;1.83;;;-6.60;99.90;;;;;;4788279;29;20047;-87
2021/12/26 01:18:22;;;;;;;5.18;1.85;;;-6.60;99.90;;;;;;4777355;29;20506;-88
2021/12/26 01:23:16;;;;;;;4.10;1.95;;;-6.70;99.90;;;;;;4783391;29;20477;-85
2021/12/26 01:25:42;;;;;;;8.88;1.88;;;-6.70;99.90;;;;;;4758795;29;20069;-86
2021/12/26 01:28:09;;;;;;;3.42;1.50;;;-6.70;99.90;;;;;;4774709;29;20039;-85
2021/12/26 01:30:39;;;;;;;5.03;2.03;;;-6.70;99.90;;;;;;4781735;29;20066;-86
2021/12/26 01:33:11;;;;;;;8.05;1.80;;;-6.80;99.90;;;;;;4762755;29;20043;-88
2021/12/26 01:35:38;;;;;;;3.25;1.70;;;-6.70;99.90;;;;;;4767731;30;20504;-86
2021/12/26 01:38:06;;;;;;;4.95;1.55;;;-6.80;99.90;;;;;;4764255;29;20035;-87
2021/12/26 01:40:36;;;;;;;3.80;1.70;;;-6.80;99.90;;;;;;4765632;29;20137;-85
2021/12/26 01:43:03;;;;;;;4.25;1.65;;;-6.80;99.90;;;;;;4766051;29;20154;-88
2021/12/26 01:45:29;;;;;;;2.95;1.45;;;-6.80;99.90;;;;;;4766200;29;20053;-85
2021/12/26 01:48:03;;;;;;;2.92;1.52;;;-6.70;99.90;;;;;;4751238;29;20055;-86
2021/12/26 01:50:29;;;;;;;2.35;1.55;;;-6.80;99.90;;;;;;4766166;29;20050;-86
2021/12/26 01:52:55;;;;;;;2.25;1.52;;;-6.80;99.90;;;;;;4748902;29;20104;-86
2021/12/26 01:55:37;;;;;;;6.88;2.38;;;-6.80;99.90;;;;;;4767414;29;20047;-86
2021/12/26 01:58:04;;;;;;;4.63;1.40;;;-6.90;99.90;;;;;;4758874;29;20590;-86
2021/12/26 02:00:30;;;;;;;3.83;1.70;;;-6.90;99.90;;;;;;4767345;29;20079;-87
2021/12/26 02:02:56;;;;;;;6.88;1.95;;;-6.80;99.90;;;;;;4760064;29;20039;-86
2021/12/26 02:05:22;;;;;;;3.95;1.48;;;-6.90;99.90;;;;;;4750635;30;20046;-86
2021/12/26 02:07:48;;;;;;;4.10;1.33;;;-6.90;99.90;;;;;;4765797;30;20117;-86
2021/12/26 02:10:14;;;;;;;5.28;1.50;;;-6.90;99.90;;;;;;4755213;29;20051;-86
2021/12/26 02:12:41;;;;;;;4.00;1.65;;;-6.90;99.90;;;;;;4762068;29;20078;-86
2021/12/26 02:15:07;;;;;;;8.57;1.77;;;-6.90;99.90;;;;;;4795013;29;20123;-85
2021/12/26 02:17:34;;;;;;;4.05;1.70;;;-7.00;99.90;;;;;;4766772;29;20112;-85
2021/12/26 02:20:17;;;;;;;4.60;1.83;;;-6.90;99.90;;;;;;4748996;29;20050;-84
2021/12/26 02:22:48;;;;;;;3.97;1.67;;;-7.00;99.90;;;;;;4763581;29;20129;-85
2021/12/26 02:25:32;;;;;;;4.97;1.73;;;-7.00;99.90;;;;;;4768452;29;20093;-85
2021/12/26 02:27:58;;;;;;;3.92;1.70;;;-7.00;99.90;;;;;;4772609;29;20047;-85
2021/12/26 02:30:24;;;;;;;2.28;1.50;;;-7.00;99.90;;;;;;4770260;29;20050;-85
2021/12/26 02:32:51;;;;;;;3.08;1.80;;;-6.90;99.90;;;;;;4748462;29;20043;-85
2021/12/26 02:35:20;;;;;;;6.13;1.77;;;-6.90;99.90;;;;;;4786932;29;20047;-86
2021/12/26 02:37:46;;;;;;;5.40;2.25;;;-6.90;99.90;;;;;;4767281;29;20043;-86
2021/12/26 02:40:12;;;;;;;3.72;2.00;;;-6.90;99.90;;;;;;4784307;29;20043;-87
2021/12/26 02:42:38;;;;;;;6.13;1.80;;;-6.90;99.90;;;;;;4765977;29;20142;-86
2021/12/26 02:45:04;;;;;;;6.97;1.70;;;-6.90;99.90;;;;;;4768711;29;20043;-86
2021/12/26 02:47:33;;;;;;;4.50;1.85;;;-6.90;99.90;;;;;;4796963;29;20047;-86
2021/12/26 02:50:13;;;;;;;3.63;1.70;;;-6.90;99.90;;;;;;4770319;29;20043;-87
2021/12/26 02:52:39;;;;;;;6.78;1.92;;;-6.90;99.90;;;;;;4763007;30;20071;-87
2021/12/26 02:55:06;;;;;;;8.23;1.92;;;-6.90;99.90;;;;;;4762984;29;20398;-86
2021/12/26 02:57:33;;;;;;;3.78;1.90;;;-6.90;99.90;;;;;;4768739;29;20053;-86
2021/12/26 03:00:09;;;;;;;4.68;1.90;;;-6.90;99.90;;;;;;4768738;29;20039;-87
2021/12/26 03:02:39;;;;;;;5.75;1.63;;;-6.90;99.90;;;;;;4773291;29;20038;-86
2021/12/26 03:05:05;;;;;;;5.70;2.58;;;-6.90;99.90;;;;;;4773874;29;20138;-87
2021/12/26 03:07:31;;;;;;;4.88;1.90;;;-6.90;99.90;;;;;;4806635;29;20047;-88
2021/12/26 03:10:00;;;;;;;5.53;1.90;;;-6.80;99.90;;;;;;4778023;29;20481;-87
2021/12/26 03:12:28;;;;;;;4.50;1.90;;;-6.90;99.90;;;;;;4752896;29;20039;-87
2021/12/26 03:14:54;;;;;;;5.30;1.92;;;-6.90;99.90;;;;;;4740288;29;20043;-86
2021/12/26 03:17:20;;;;;;;3.25;1.88;;;-7.00;99.90;;;;;;4771760;29;20820;-86
2021/12/26 03:19:46;;;;;;;4.50;2.20;;;-7.00;99.90;;;;;;4766557;29;20364;-89
2021/12/26 03:22:14;;;;;;;5.28;1.63;;;-7.00;99.90;;;;;;4758492;29;20046;-87
2021/12/26 03:24:43;;;;;;;5.22;2.22;;;-6.90;99.90;;;;;;4769202;29;20416;-86
2021/12/26 03:27:09;;;;;;;5.47;1.80;;;-7.00;99.90;;;;;;4760275;29;20047;-86
2021/12/26 03:29:35;;;;;;;5.25;2.03;;;-7.10;99.90;;;;;;4768307;29;20197;-87
2021/12/26 03:32:01;;;;;;;3.80;1.75;;;-7.10;99.90;;;;;;4766086;30;20043;-86
2021/12/26 03:34:27;;;;;;;2.42;1.70;;;-7.10;99.90;;;;;;4770596;29;20559;-86
2021/12/26 03:36:56;;;;;;;4.22;1.85;;;-7.10;99.90;;;;;;4764321;29;20177;-86
2021/12/26 03:39:23;;;;;;;4.63;2.00;;;-7.10;99.90;;;;;;4750944;29;20160;-85
2021/12/26 03:41:50;;;;;;;3.97;1.65;;;-7.20;99.90;;;;;;4744698;29;20126;-86
2021/12/26 03:44:16;;;;;;;3.17;2.10;;;-7.10;99.90;;;;;;4765584;29;20043;-87
2021/12/26 03:46:43;;;;;;;6.35;2.28;;;-7.20;99.90;;;;;;4743874;29;20099;-86
2021/12/26 03:49:10;;;;;;;9.20;2.30;;;-7.20;99.90;;;;;;4766827;29;20389;-85
2021/12/26 03:51:36;;;;;;;4.13;1.88;;;-7.20;99.90;;;;;;4787890;29;20062;-88
2021/12/26 03:54:05;;;;;;;3.72;1.67;;;-7.20;99.90;;;;;;4747008;29;20131;-87
2021/12/26 03:56:32;;;;;;;6.63;2.17;;;-7.20;99.90;;;;;;4764221;29;20084;-86
2021/12/26 03:58:58;;;;;;;3.67;2.05;;;-7.10;99.90;;;;;;4789426;29;20063;-86
2021/12/26 04:01:25;;;;;;;5.68;2.13;;;-7.20;99.90;;;;;;4775068;29;20062;-87
2021/12/26 04:03:51;;;;;;;4.20;2.13;;;-7.30;99.90;;;;;;4745729;29;20452;-86
2021/12/26 04:06:17;;;;;;;4.25;2.40;;;-7.30;99.90;;;;;;4769622;29;20180;-86
2021/12/26 04:08:43;;;;;;;4.80;1.90;;;-7.30;99.90;;;;;;4755111;29;20117;-87
2021/12/26 04:11:08;;;;;;;3.85;1.73;;;-7.30;99.90;;;;;;4758404;29;20507;-86
2021/12/26 04:13:35;;;;;;;5.22;2.10;;;-7.30;99.90;;;;;;4765886;29;20050;-86
2021/12/26 04:16:02;;;;;;;5.75;2.42;;;-7.30;99.90;;;;;;4757014;29;20046;-86
2021/12/26 04:18:28;;;;;;;4.47;2.15;;;-7.30;99.90;;;;;;4768507;29;20110;-86
2021/12/26 04:20:54;;;;;;;4.03;1.63;;;-7.30;99.90;;;;;;4752534;29;20411;-86
2021/12/26 04:23:19;;;;;;;3.55;1.67;;;-7.40;99.90;;;;;;4744880;29;20047;-87
2021/12/26 04:25:45;;;;;;;4.68;1.63;;;-7.30;99.90;;;;;;4777311;29;20377;-86
2021/12/26 04:28:11;;;;;;;7.00;2.00;;;-7.30;99.90;;;;;;4744447;29;20054;-87
2021/12/26 04:30:37;;;;;;;5.50;2.13;;;-7.30;99.90;;;;;;4767788;29;20115;-86
2021/12/26 04:33:04;;;;;;;4.70;2.10;;;-7.40;99.90;;;;;;4756229;29;20035;-86
2021/12/26 04:35:30;;;;;;;3.47;2.03;;;-7.30;99.90;;;;;;4786198;29;20512;-86
2021/12/26 04:37:56;;;;;;;4.20;2.17;;;-7.30;99.90;;;;;;4766508;29;20042;-86
2021/12/26 04:40:22;;;;;;;3.63;1.85;;;-7.30;99.90;;;;;;4765725;29;20053;-86
2021/12/26 04:42:49;;;;;;;4.25;2.33;;;-7.40;99.90;;;;;;4771501;29;20043;-86
2021/12/26 04:45:16;;;;;;;5.72;1.77;;;-7.40;99.90;;;;;;4779739;29;20131;-89
2021/12/26 04:47:44;;;;;;;4.50;1.98;;;-7.40;99.90;;;;;;4772953;29;20050;-86
2021/12/26 04:50:14;;;;;;;3.08;1.80;;;-7.30;99.90;;;;;;4751608;29;20043;-86
2021/12/26 04:52:43;;;;;;;4.38;2.22;;;-7.40;99.90;;;;;;4791211;29;20529;-86
2021/12/26 04:55:11;;;;;;;4.13;2.10;;;-7.30;99.90;;;;;;4752024;29;20035;-86
2021/12/26 04:57:37;;;;;;;6.93;2.40;;;-7.40;99.90;;;;;;4770263;29;20039;-86
2021/12/26 05:00:12;;;;;;;3.55;1.75;;;-7.40;99.90;;;;;;4754620;29;20043;-85
2021/12/26 05:02:39;;;;;;;3.47;2.10;;;-7.40;99.90;;;;;;4768603;29;20078;-86
2021/12/26 05:05:06;;;;;;;4.32;2.00;;;-7.40;99.90;;;;;;4765481;29;20092;-86
2021/12/26 05:07:33;;;;;;;5.13;2.30;;;-7.40;99.90;;;;;;4769665;29;20069;-88
2021/12/26 05:09:59;;;;;;;4.22;2.22;;;-7.40;99.90;;;;;;4768941;30;20075;-87
2021/12/26 05:12:25;;;;;;;4.05;2.17;;;-7.50;99.90;;;;;;4771948;29;20462;-86
2021/12/26 05:14:52;;;;;;;5.15;2.00;;;-7.40;99.90;;;;;;4735745;29;20046;-86
2021/12/26 05:17:18;;;;;;;6.75;2.40;;;-7.40;99.90;;;;;;4769705;29;20082;-86
2021/12/26 05:19:44;;;;;;;4.05;2.22;;;-7.40;99.90;;;;;;4739536;30;20090;-86
2021/12/26 05:22:10;;;;;;;5.22;2.13;;;-7.40;99.90;;;;;;4758158;29;20052;-86
2021/12/26 05:24:35;;;;;;;4.28;1.85;;;-7.40;99.90;;;;;;4801188;29;20133;-87
2021/12/26 05:27:02;;;;;;;3.80;2.05;;;-7.30;99.90;;;;;;4763380;29;20051;-85
2021/12/26 05:29:28;;;;;;;5.82;2.53;;;-7.30;99.90;;;;;;4768183;29;20449;-87
2021/12/26 05:31:53;;;;;;;5.25;2.35;;;-7.30;99.90;;;;;;4763954;29;20599;-85
2021/12/26 05:34:20;;;;;;;3.67;2.20;;;-7.30;99.90;;;;;;4750145;29;20527;-86
2021/12/26 05:36:46;;;;;;;6.95;2.88;;;-7.30;99.90;;;;;;4757619;30;20126;-87
2021/12/26 05:39:13;;;;;;;4.97;2.20;;;-7.30;99.90;;;;;;4770509;29;20247;-86
2021/12/26 05:41:41;;;;;;;5.18;2.45;;;-7.40;99.90;;;;;;4755616;30;20075;-87
2021/12/26 05:44:07;;;;;;;3.80;2.03;;;-7.20;99.90;;;;;;4756153;29;20109;-87
2021/12/26 05:46:33;;;;;;;4.70;2.38;;;-7.20;99.90;;;;;;4776624;29;20334;-86
2021/12/26 05:49:00;;;;;;;5.55;2.50;;;-7.20;99.90;;;;;;4748714;29;20055;-88
2021/12/26 05:51:26;;;;;;;4.90;2.53;;;-7.20;99.90;;;;;;4764942;29;20040;-86
2021/12/26 05:53:52;;;;;;;3.83;2.50;;;-7.20;99.90;;;;;;4767627;29;20088;-86
2021/12/26 05:56:18;;;;;;;4.38;2.38;;;-7.20;99.90;;;;;;4760942;29;20074;-85
2021/12/26 05:58:44;;;;;;;5.85;2.33;;;-7.20;99.90;;;;;;4770031;29;20070;-87
2021/12/26 06:01:10;;;;;;;4.57;2.22;;;-7.10;99.90;;;;;;4782101;29;20043;-88
2021/12/26 06:03:36;;;;;;;4.22;2.58;;;-7.10;99.90;;;;;;4780526;29;20130;-86
2021/12/26 06:06:03;;;;;;;6.93;2.53;;;-7.10;99.90;;;;;;4750066;29;20530;-87
2021/12/26 06:08:28;;;;;;;6.97;2.50;;;-7.20;99.90;;;;;;4774723;29;20134;-86
2021/12/26 06:10:54;;;;;;;8.18;3.05;;;-7.20;99.90;;;;;;4783344;29;20043;-87
2021/12/26 06:13:20;;;;;;;4.22;2.63;;;-7.10;99.90;;;;;;4766792;29;20039;-86
2021/12/26 06:15:46;;;;;;;5.53;2.65;;;-7.10;99.90;;;;;;4774673;29;20118;-87
2021/12/26 06:18:12;;;;;;;4.47;2.42;;;-7.10;99.90;;;;;;4749703;29;20051;-86
2021/12/26 06:20:38;;;;;;;7.13;2.72;;;-7.10;99.90;;;;;;4782657;29;20404;-87
2021/12/26 06:23:04;;;;;;;6.55;2.72;;;-7.10;99.90;;;;;;4760291;30;20374;-87
2021/12/26 06:25:31;;;;;;;5.90;3.00;;;-7.10;99.90;;;;;;4769839;29;20568;-87
2021/12/26 06:27:56;;;;;;;6.03;2.75;;;-7.10;99.90;;;;;;4774525;29;20089;-87
2021/12/26 06:30:22;;;;;;;8.23;3.20;;;-7.20;99.90;;;;;;4774317;29;20130;-87
2021/12/26 06:32:48;;;;;;;5.22;3.08;;;-7.20;99.90;;;;;;4737225;29;21172;-85
2021/12/26 06:35:14;;;;;;;6.32;3.28;;;-7.20;99.90;;;;;;4773991;29;20096;-87
2021/12/26 06:37:40;;;;;;;6.32;3.28;;;-7.20;99.90;;;;;;4756904;29;20662;-87
2021/12/26 06:40:08;;;;;;;4.32;3.10;;;-7.20;99.90;;;;;;4767085;29;20066;-88
2021/12/26 06:42:40;;;;;;;5.40;2.88;;;-7.20;99.90;;;;;;4796387;29;20117;-88
2021/12/26 06:45:07;;;;;;;8.13;3.87;;;-7.20;99.90;;;;;;4737551;29;20047;-88
2021/12/26 06:47:33;;;;;;;5.88;3.55;;;-7.20;99.90;;;;;;4749767;29;20054;-88
2021/12/26 06:49:58;;;;;;;9.48;3.50;;;-7.20;99.90;;;;;;4769821;29;20074;-89
2021/12/26 06:52:24;;;;;;;6.05;3.40;;;-7.20;99.90;;;;;;4754258;29;20039;-87
2021/12/26 06:54:50;;;;;;;9.43;3.88;;;-7.20;99.90;;;;;;4758284;29;20039;-87
2021/12/26 06:57:16;;;;;;;5.97;3.83;;;-7.30;99.90;;;;;;4763714;30;20046;-87
2021/12/26 06:59:42;;;;;;;8.98;4.70;;;-7.30;99.90;;;;;;4738870;29;20047;-86
2021/12/26 07:02:08;;;;;;;9.55;4.45;;;-7.30;99.90;;;;;;4752797;29;20412;-87
2021/12/26 07:04:34;;;;;;;5.22;3.40;;;-7.30;99.90;;;;;;4764758;29;20456;-86
2021/12/26 07:07:00;;;;;;;6.80;3.85;;;-7.30;99.90;;;;;;4767882;29;20043;-87
2021/12/26 07:09:26;;;;;;;12.30;4.05;;;-7.30;99.90;;;;;;4768416;29;20042;-89
2021/12/26 07:11:51;;;;;;;6.57;3.80;;;-7.20;99.90;;;;;;4780999;29;20073;-86
2021/12/26 07:14:17;;;;;;;8.50;3.92;;;-7.20;99.90;;;;;;4766360;29;20046;-87
2021/12/26 07:16:43;;;;;;;9.05;4.05;;;-7.20;99.90;;;;;;4747540;29;20118;-86
2021/12/26 07:19:09;;;;;;;6.70;3.78;;;-7.20;99.90;;;;;;4750195;29;20583;-87
2021/12/26 07:21:35;;;;;;;5.97;3.63;;;-7.20;99.90;;;;;;4764017;29;20091;-88
2021/12/26 07:24:00;;;;;;;6.93;4.30;;;-7.20;99.90;;;;;;4751522;29;20043;-86
2021/12/26 07:26:26;;;;;;;8.43;4.30;;;-7.10;99.90;;;;;;4765287;29;20154;-87
2021/12/26 07:28:52;;;;;;;10.20;4.30;;;-7.20;99.90;;;;;;4739980;29;20046;-87
2021/12/26 07:31:18;;;;;;;8.52;4.20;;;-7.20;99.90;;;;;;4752734;29;20122;-87
2021/12/26 07:33:43;;;;;;;7.88;4.00;;;-7.20;99.90;;;;;;4739148;29;20523;-87
2021/12/26 07:36:09;;;;;;;9.32;4.60;;;-7.20;99.90;;;;;;4734693;29;20412;-87
2021/12/26 07:38:35;;;;;;;11.18;4.82;;;-7.20;99.90;;;;;;4756207;30;20171;-87
2021/12/26 07:41:01;;;;;;;8.82;4.47;;;-7.20;99.90;;;;;;4771521;29;20051;-86
2021/12/26 07:43:26;;;;;;;10.75;5.05;;;-7.20;99.90;;;;;;4752240;29;20043;-87
2021/12/26 07:45:52;;;;;;;12.88;5.20;;;-7.20;99.90;;;;;;4752017;29;20051;-86
2021/12/26 07:48:18;;;;;;;8.88;4.25;;;-7.20;99.90;;;;;;4767486;29;20051;-87
2021/12/26 07:50:44;;;;;;;10.88;5.00;;;-7.20;99.90;;;;;;4798937;29;20127;-87
2021/12/26 07:53:11;;;;;;;10.38;4.57;;;-7.20;99.90;;;;;;4758279;29;20645;-87
2021/12/26 07:55:39;;;;;;;12.20;4.50;;;-7.10;99.90;;;;;;4772965;29;20046;-87
2021/12/26 07:58:05;;;;;;;7.22;4.28;;;-7.10;99.90;;;;;;4780766;29;20048;-87
2021/12/26 08:00:31;;;;;;;6.95;4.18;;;-7.10;99.90;;;;;;4768579;29;20202;-86
2021/12/26 08:02:58;;;;;;;9.20;4.30;;;-7.10;99.90;;;;;;4756901;30;20122;-86
2021/12/26 08:05:25;;;;;;;10.13;4.28;;;-7.10;99.90;;;;;;4764729;29;20134;-86
2021/12/26 08:07:51;;;;;;;8.48;4.03;;;-7.10;99.90;;;;;;4779301;29;20047;-86
2021/12/26 08:10:17;;;;;;;12.02;4.63;;;-7.10;99.90;;;;;;4754828;29;20058;-86
2021/12/26 08:12:42;;;;;;;10.02;4.88;;;-7.10;99.90;;;;;;4749266;29;20067;-87
2021/12/26 08:15:09;;;;;;;10.75;4.82;;;-7.10;99.90;;;;;;4758119;29;20066;-87
2021/12/26 08:17:35;;;;;;;9.05;4.70;;;-7.00;99.90;;;;;;4772565;29;20167;-87
2021/12/26 08:20:03;;;;;;;9.57;4.40;;;-7.00;99.90;;;;;;4803803;29;20055;-87
2021/12/26 08:22:28;;;;;;;5.95;4.35;;;-6.90;99.90;;;;;;4749947;29;20191;-87
2021/12/26 08:24:54;;;;;;;10.38;4.72;;;-6.90;99.90;;;;;;4749336;29;20630;-86
2021/12/26 08:27:20;;;;;;;8.73;4.72;;;-6.90;99.90;;;;;;4776489;29;20144;-86
2021/12/26 08:29:47;;;;;;;9.40;4.53;;;-6.80;99.90;;;;;;4780705;29;20035;-86
2021/12/26 08:32:22;;;;;;;11.75;4.53;;;-6.80;99.90;;;;;;4762177;29;20062;-86
2021/12/26 08:34:54;;;;;;;8.07;4.40;;;-6.80;99.90;;;;;;4754131;29;20043;-87
2021/12/26 08:37:27;;;;;;;11.80;5.13;;;-6.70;99.90;;;;;;4750229;29;20032;-88
2021/12/26 08:39:55;;;;;;;8.82;4.88;;;-6.70;99.90;;;;;;4775780;29;20129;-88
2021/12/26 08:42:27;;;;;;;9.68;4.97;;;-6.60;99.90;;;;;;4765013;29;20373;-87
2021/12/26 08:44:53;;;;;;;7.23;4.10;;;-6.50;99.90;;;;;;4767563;29;20050;-86
2021/12/26 08:47:19;;;;;;;6.45;4.07;;;-6.40;99.90;;;;;;4767683;29;20063;-87
2021/12/26 08:49:45;;;;;;;10.23;4.97;;;-6.50;99.90;;;;;;4733734;29;20101;-87
2021/12/26 08:52:11;;;;;;;7.20;4.60;;;-6.40;99.90;;;;;;4763370;29;20038;-87
2021/12/26 08:54:38;;;;;;;8.73;4.53;;;-6.30;99.90;;;;;;4778998;29;20518;-87
2021/12/26 08:57:06;;;;;;;8.93;5.05;;;-6.30;99.90;;;;;;4765347;29;20500;-87
2021/12/26 08:59:32;;;;;;;11.60;4.90;;;-6.20;99.90;;;;;;4769109;29;20051;-85
2021/12/26 09:02:07;;;;;;;10.10;4.65;;;-6.20;99.90;;;;;;4757167;29;20200;-86
2021/12/26 09:04:35;;;;;;;8.10;4.55;;;-6.10;99.90;;;;;;4769513;29;20047;-87
2021/12/26 09:07:01;;;;;;;8.23;4.70;;;-6.10;99.90;;;;;;4776508;29;20054;-85
2021/12/26 09:09:29;;;;;;;11.27;4.50;;;-6.00;99.90;;;;;;4778581;29;20118;-87
2021/12/26 09:11:58;;;;;;;9.55;4.78;;;-5.90;99.90;;;;;;4764088;30;20059;-87
2021/12/26 09:14:26;;;;;;;11.20;4.85;;;-5.80;99.90;;;;;;4768596;29;20043;-87
2021/12/26 09:16:52;;;;;;;12.18;4.63;;;-5.80;99.90;;;;;;4766572;29;20606;-85
2021/12/26 09:19:17;;;;;;;10.82;4.57;;;-5.70;99.90;;;;;;4768553;29;20047;-85
2021/12/26 09:21:43;;;;;;;9.57;4.68;;;-5.60;99.90;;;;;;4769696;29;20036;-86
2021/12/26 09:24:09;;;;;;;8.10;4.22;;;-5.60;99.90;;;;;;4748681;29;20047;-87
2021/12/26 09:26:35;;;;;;;8.68;4.68;;;-5.60;99.90;;;;;;4754272;29;20049;-87
2021/12/26 09:29:00;;;;;;;7.88;4.53;;;-5.40;99.90;;;;;;4770593;29;20099;-88
2021/12/26 09:31:27;;;;;;;8.20;4.88;;;-5.30;99.90;;;;;;4778478;29;20066;-86
2021/12/26 09:33:52;;;;;;;8.88;4.30;;;-5.30;99.90;;;;;;4780256;29;20132;-86
2021/12/26 09:36:19;;;;;;;11.23;4.43;;;-5.20;99.90;;;;;;4754766;29;20603;-86
2021/12/26 09:38:45;;;;;;;8.93;4.32;;;-5.10;99.90;;;;;;4758185;29;20100;-86
2021/12/26 09:41:10;;;;;;;11.10;4.45;;;-5.10;99.90;;;;;;4756375;29;21202;-86
2021/12/26 09:43:37;;;;;;;7.78;4.70;;;-5.00;99.90;;;;;;4738345;30;20094;-86
2021/12/26 09:46:03;;;;;;;8.02;4.30;;;-4.90;99.90;;;;;;4756546;29;20118;-86
2021/12/26 09:48:28;;;;;;;6.90;3.92;;;-4.80;99.90;;;;;;4769082;29;20843;-86
2021/12/26 09:50:54;;;;;;;7.53;4.38;;;-4.80;99.90;;;;;;4745358;29;20531;-86
2021/12/26 09:53:20;;;;;;;6.25;4.05;;;-4.70;99.90;;;;;;4754687;29;20511;-86
2021/12/26 09:55:46;;;;;;;12.73;4.13;;;-4.70;99.90;;;;;;4768917;29;20297;-86
2021/12/26 09:58:13;;;;;;;9.70;3.92;;;-4.50;99.90;;;;;;4737529;29;20492;-86
2021/12/26 10:00:42;;;;;;;8.48;4.60;;;-4.50;99.90;;;;;;4765355;29;20046;-87
2021/12/26 10:03:34;;;;;;;9.48;4.28;;;-4.40;99.90;;;;;;4788256;29;20685;-86
2021/12/26 10:06:13;;;;;;;13.00;4.70;;;-4.30;99.90;;;;;;4788525;29;20047;-86
2021/12/26 10:09:01;;;;;;;8.38;5.07;;;-4.20;99.90;;;;;;4787774;29;20050;-86
2021/12/26 10:11:44;;;;;;;7.07;4.45;;;-4.20;99.90;;;;;;4779671;29;20047;-86
2021/12/26 10:14:15;;;;;;;10.27;4.63;;;-4.10;99.90;;;;;;4773707;29;20062;-87
2021/12/26 10:17:03;;;;;;;8.83;4.43;;;-3.90;99.90;;;;;;4790345;29;20525;-86
2021/12/26 10:19:36;;;;;;;6.05;4.30;;;-3.90;99.90;;;;;;4788598;29;20414;-85
2021/12/26 10:22:04;;;;;;;6.97;4.82;;;-3.80;99.90;;;;;;4754182;29;20051;-87
2021/12/26 10:24:33;;;;;;;8.73;4.72;;;-3.70;99.90;;;;;;4791813;29;20092;-85
2021/12/26 10:27:04;;;;;;;7.82;4.65;;;-3.60;99.90;;;;;;4759042;29;20046;-86
2021/12/26 10:29:41;;;;;;;8.00;4.13;;;-3.50;99.90;;;;;;4768388;29;20138;-86
2021/12/26 10:32:15;;;;;;;8.65;4.93;;;-3.40;99.90;;;;;;4765898;29;20051;-87
2021/12/26 10:34:55;;;;;;;8.10;4.95;;;-3.30;99.90;;;;;;4783744;29;20121;-85
2021/12/26 10:37:25;;;;;;;10.70;4.80;;;-3.00;99.90;;;;;;4766544;29;20059;-84
2021/12/26 10:40:11;;;;;;;10.15;5.10;;;-2.90;99.90;;;;;;4766357;29;20043;-85
2021/12/26 10:42:50;;;;;;;9.73;5.32;;;-2.70;99.90;;;;;;4774613;29;20055;-86
2021/12/26 10:45:20;;;;;;;8.38;4.30;;;-2.70;99.90;;;;;;4774722;29;20050;-87
2021/12/26 10:47:59;;;;;;;7.38;4.75;;;-2.60;99.90;;;;;;4798002;29;20379;-85
2021/12/26 10:50:27;;;;;;;7.55;4.88;;;-2.60;99.90;;;;;;4767492;29;20530;-87
2021/12/26 10:52:58;;;;;;;8.02;4.70;;;-2.60;99.90;;;;;;4754360;30;20387;-84
2021/12/26 10:55:36;;;;;;;9.02;4.53;;;-2.50;99.90;;;;;;4782708;29;20089;-86
2021/12/26 10:58:05;;;;;;;7.20;4.47;;;-2.50;99.90;;;;;;4767384;30;20047;-86
2021/12/26 11:00:43;;;;;;;7.85;4.50;;;-2.50;99.90;;;;;;4784324;29;20069;-86
2021/12/26 11:03:10;;;;;;;12.93;5.60;;;-2.40;99.90;;;;;;4784069;29;20055;-85
2021/12/26 11:05:46;;;;;;;12.85;5.20;;;-2.40;99.90;;;;;;4782793;29;20046;-86
2021/12/26 11:08:14;;;;;;;8.65;4.68;;;-2.30;99.90;;;;;;4736826;24;1157847;-84
2021/12/26 11:10:52;;;;;;;6.40;4.40;;;-2.20;99.90;;;;;;4759629;29;20052;-85
2021/12/26 11:13:17;;;;;;;13.25;4.35;;;-2.20;99.90;;;;;;4800795;29;20471;-86
2021/12/26 11:15:45;;;;;;;10.32;4.78;;;-2.10;99.90;;;;;;4778872;29;20066;-84
2021/12/26 11:18:16;;;;;;;7.82;5.00;;;-2.10;99.90;;;;;;4767932;29;20039;-84
2021/12/26 11:20:46;;;;;;;10.57;4.43;;;-2.00;99.90;;;;;;4789946;29;20447;-85
2021/12/26 11:23:15;;;;;;;6.25;4.55;;;-1.90;99.90;;;;;;4776677;29;20055;-82
2021/12/26 11:25:44;;;;;;;9.80;4.88;;;-1.80;99.90;;;;;;4782259;29;20043;-84
2021/12/26 11:28:12;;;;;;;6.88;4.68;;;-1.80;99.90;;;;;;4788102;29;20039;-83
2021/12/26 11:30:40;;;;;;;12.85;5.20;;;-1.80;99.90;;;;;;4783561;29;20656;-84
2021/12/26 11:33:08;;;;;;;10.48;4.45;;;-1.70;99.90;;;;;;4778920;29;20364;-83
2021/12/26 11:35:37;;;;;;;7.97;4.78;;;-1.70;99.90;;;;;;4769143;29;20395;-84
2021/12/26 11:38:04;;;;;;;6.15;4.03;;;-1.60;99.90;;;;;;4777730;29;20047;-84
2021/12/26 11:40:32;;;;;;;6.97;4.40;;;-1.50;99.90;;;;;;4778470;29;20115;-83
2021/12/26 11:42:57;;;;;;;8.07;4.55;;;-1.40;99.90;;;;;;4778730;29;20047;-81
2021/12/26 11:45:30;;;;;;;7.95;4.50;;;-1.40;99.90;;;;;;4775578;29;20047;-80
2021/12/26 11:48:40;;;;;;;7.70;4.05;;;-1.30;99.90;;;;;;4795128;29;20665;-84
2021/12/26 11:51:28;;;;;;;9.50;4.53;;;-1.10;97.70;;;;;;4786866;29;20534;-84
2021/12/26 11:54:25;;;;;;;7.63;4.55;;;-1.00;99.90;;;;;;4783978;29;20107;-82
2021/12/26 11:57:00;;;;;;;6.13;4.00;;;-0.80;99.90;;;;;;4793766;29;20046;-83
2021/12/26 11:59:47;;;;;;;7.22;3.90;;;-0.70;99.90;;;;;;4791321;29;20046;-84
2021/12/26 12:02:32;;;;;;;7.60;4.13;;;-0.60;99.90;;;;;;4785896;29;20484;-81
2021/12/26 12:05:18;;;;;;;8.27;4.93;;;-0.60;99.90;;;;;;4786696;29;20047;-84
2021/12/26 12:08:00;;;;;;;8.48;4.20;;;-0.60;99.90;;;;;;4798594;29;20499;-85
2021/12/26 12:10:55;;;;;;;6.00;4.00;;;-0.60;99.90;;;;;;4791746;29;20147;-82
2021/12/26 12:13:26;;;;;;;7.40;4.70;;;-0.50;99.90;;;;;;4780949;29;20038;-84
2021/12/26 12:15:56;;;;;;;7.07;4.47;;;-0.30;99.90;;;;;;4786151;29;20043;-83
2021/12/26 12:18:30;;;;;;;6.70;4.15;;;-0.10;99.90;;;;;;4771648;29;20100;-86
2021/12/26 12:21:31;;;;;;;9.07;4.95;;;0.00;99.90;;;;;;4775572;29;20050;-83
2021/12/26 12:24:19;;;;;;;7.50;4.20;;;0.20;99.90;;;;;;4759509;29;20555;-84
2021/12/26 12:26:47;;;;;;;7.22;4.15;;;0.30;99.90;;;;;;4790661;29;20091;-84
2021/12/26 12:29:28;;;;;;;8.00;4.68;;;0.60;99.50;;;;;;4771383;29;20092;-82
2021/12/26 12:32:06;;;;;;;7.32;4.75;;;0.90;99.40;;;;;;4780597;29;20038;-85
2021/12/26 12:34:52;;;;;;;8.52;4.30;;;1.10;97.60;;;;;;4789457;29;20756;-82
2021/12/26 12:37:33;;;;;;;8.63;5.18;;;1.00;97.20;;;;;;4792800;29;20035;-87
2021/12/26 12:40:13;;;;;;;6.97;4.70;;;0.90;98.70;;;;;;4778438;29;20046;-88
2021/12/26 12:42:42;;;;;;;7.70;4.15;;;1.10;99.90;;;;;;4785715;29;20053;-88
2021/12/26 12:45:09;;;;;;;12.48;5.22;;;1.80;99.90;;;;;;4771638;29;20070;-85
2021/12/26 12:47:34;;;;;;;7.15;4.43;;;2.00;98.70;;;;;;4757337;29;20063;-86
2021/12/26 12:50:03;;;;;;;7.05;4.63;;;2.00;95.70;;;;;;4750749;29;20047;-85
2021/12/26 12:52:43;;;;;;;8.60;3.97;;;2.10;97.50;;;;;;4774847;29;20039;-86
2021/12/26 12:55:40;;;;;;;10.30;4.80;;;2.40;98.90;;;;;;4784108;29;20495;-88
2021/12/26 12:58:23;;;;;;;7.63;4.68;;;2.70;95.60;;;;;;4776092;29;20380;-85